Latest Coastal Weather Observations for Gannett Cay

IDQ60701

Issued at 11:22 pm EST Friday 30 September 2016 (issued every 10 minutes, with the page automatically refreshed every 10 minutes)

About coastal observations | Map of coastal stations | Coastal observations for QLD | Marine services | Other Formats
Station Details ID: 200831 Name: GANNET CAY Lat: -21.98 Lon: 152.47 Height: 2.3 m
Data from the previous 72 hours. | See also: Recent months for locations in Queensland
Date/Time
EST
Temp
°C
Wind Pressure Rain since
9am
mm
Weather Cloud Vis
km
Sea
Height
m
Swell
Dir  Spd
kts
Gust
kts
hPa Trend Height
m
Period
s
Dir
30/11:00pm 23.8 WNW 9 10 1011.9 - - - - - - - - -
30/10:30pm 23.7 WNW 9 10 1012.0 - - - - - - - - -
30/10:29pm 23.8 WNW 9 - 1012.1 - - - - - - - - -
30/10:00pm 23.8 WNW 10 11 1012.1 - - - - - - - - -
30/09:30pm 23.8 W 9 11 1012.0 - - - - - - - - -
30/09:29pm 23.9 W 9 - 1012.1 - - - - - - - - -
30/09:00pm 23.8 W 11 12 1011.9 - - - - - - - - -
30/08:30pm 23.9 W 12 13 1011.7 - - - - - - - - -
30/08:29pm 23.9 W 12 - 1011.8 - - - - - - - - -
30/08:00pm 23.8 W 11 13 1011.3 - - - - - - - - -
30/07:30pm 23.9 W 12 14 1011.0 - - - - - - - - -
30/07:29pm 23.8 W 12 - 1011.1 - - - - - - - - -
30/07:00pm 23.9 W 13 14 1010.6 - - - - - - - - -
30/06:30pm 24.0 W 11 13 1010.3 - - - - - - - - -
30/06:29pm 23.9 W 11 - 1010.4 - - - - - - - - -
30/06:00pm 23.9 WNW 12 14 1009.9 - - - - - - - - -
30/05:30pm 23.9 WNW 13 14 1009.3 - - - - - - - - -
30/05:29pm 24.0 WNW 13 - 1009.5 - - - - - - - - -
30/05:00pm 24.0 WNW 13 15 1009.0 - - - - - - - - -
30/04:30pm 24.0 W 14 16 1008.9 - - - - - - - - -
30/04:29pm 24.0 W 14 - 1009.1 - - - - - - - - -
30/04:00pm 24.2 W 14 17 1008.6 - - - - - - - - -
30/03:30pm 24.2 W 16 18 1008.5 - - - - - - - - -
30/03:29pm 24.3 W 16 - 1008.7 - - - - - - - - -
30/03:00pm 24.1 W 19 21 1008.6 - - - - - - - - -
30/02:30pm 24.6 WNW 21 25 1008.3 - - - - - - - - -
30/02:29pm 24.7 WNW 21 - 1008.5 - - - - - - - - -
30/02:00pm 24.8 WNW 21 24 1008.5 - - - - - - - - -
30/01:30pm 24.7 WNW 22 25 1008.9 - - - - - - - - -
30/01:29pm 24.6 WNW 22 - 1009.2 - - - - - - - - -
30/01:00pm 25.0 NW 17 21 1009.3 - - - - - - - - -
30/12:30pm 24.8 NW 17 21 1009.6 - - - - - - - - -
30/12:29pm 24.8 NW 17 - 1009.7 - - - - - - - - -
30/12:00pm 24.8 WNW 17 19 1009.9 - - - - - - - - -
30/11:30am 24.9 WNW 16 19 1010.0 - - - - - - - - -
30/11:29am 24.9 WNW 16 - 1010.1 - - - - - - - - -
30/11:00am 24.8 WNW 15 18 1010.4 - - - - - - - - -
30/10:30am 24.9 WNW 15 17 1010.4 - - - - - - - - -
30/10:29am 24.9 WNW 15 - 1010.5 - - - - - - - - -
30/10:00am 24.8 NW 15 17 1010.5 - - - - - - - - -
30/09:30am 24.8 NNW 16 20 1010.4 - - - - - - - - -
30/09:29am 24.7 NNW 16 - 1010.5 - - - - - - - - -
30/09:00am 24.7 NNW 17 20 1010.6 - - - - - - - - -
30/08:30am 24.7 NNW 16 19 1010.4 - - - - - - - - -
30/08:29am 24.7 NNW 17 - 1010.5 - - - - - - - - -
30/08:00am 24.6 NNW 17 19 1010.4 - - - - - - - - -
30/07:30am 24.5 NNW 18 20 1010.0 - - - - - - - - -
30/07:29am 24.5 NNW 18 - 1010.1 - - - - - - - - -
30/07:00am 24.5 NNW 21 23 1009.3 - - - - - - - - -
30/06:30am 24.6 NNW 19 23 1008.9 - - - - - - - - -
30/06:29am 24.6 NNW 19 - 1009.1 - - - - - - - - -
30/06:00am 24.4 NNW 19 21 1008.4 - - - - - - - - -
30/05:30am 24.4 NNW 20 23 1008.2 - - - - - - - - -
30/05:29am 24.5 NNW 20 - 1008.4 - - - - - - - - -
30/05:00am 24.4 NNW 20 25 1008.1 - - - - - - - - -
30/04:30am 24.4 N 20 23 1007.7 - - - - - - - - -
30/04:29am 24.4 N 21 - 1007.9 - - - - - - - - -
30/04:00am 24.4 N 22 25 1007.9 - - - - - - - - -
30/03:30am 24.3 N 21 24 1007.7 - - - - - - - - -
30/03:29am 24.3 N 21 - 1007.9 - - - - - - - - -
30/03:00am 24.3 N 21 24 1007.9 - - - - - - - - -
30/02:30am 24.2 N 20 25 1008.3 - - - - - - - - -
30/02:29am 24.3 N 20 - 1008.5 - - - - - - - - -
30/02:00am 24.2 N 22 25 1008.5 - - - - - - - - -
30/01:30am 24.2 N 19 23 1009.3 - - - - - - - - -
30/01:29am 24.1 N 19 - 1009.4 - - - - - - - - -
30/01:00am 24.0 N 21 25 1008.5 - - - - - - - - -
30/12:30am 24.1 N 20 25 1009.7 - - - - - - - - -
30/12:29am 24.0 N 21 - 1009.9 - - - - - - - - -
30/12:00am 24.0 N 19 23 1010.0 - - - - - - - - -
 
Date/Time
EST
Temp
°C
Wind Pressure Rain since
9am
mm
Weather Cloud Vis
km
Sea
Height
m
Swell
Dir  Spd
kts
Gust
kts
hPa Trend Height
m
Period
s
Dir
29/11:30pm 23.8 N 21 25 1010.2 - - - - - - - - -
29/11:29pm 23.8 N 21 - 1010.3 - - - - - - - - -
29/11:00pm 24.2 N 20 24 1010.5 - - - - - - - - -
29/10:30pm 24.3 N 19 22 1010.8 - - - - - - - - -
29/10:29pm 24.3 N 19 - 1010.8 - - - - - - - - -
29/10:00pm 24.0 N 15 17 1010.7 - - - - - - - - -
29/09:39pm 23.8 N 15 17 1010.9 - - - - - - - - -
29/09:30pm 23.5 N 1 5 1011.3 - - - - - - - - -
29/09:29pm 23.5 N 1 - 1011.4 - - - - - - - - -
29/09:00pm 24.2 N 14 16 1011.3 - - - - - - - - -
29/08:30pm 24.3 N 15 17 1010.8 - - - - - - - - -
29/08:29pm 24.3 N 15 - 1010.9 - - - - - - - - -
29/08:00pm 24.3 N 14 16 1010.7 - - - - - - - - -
29/07:30pm 24.3 N 16 18 1009.9 - - - - - - - - -
29/07:29pm 24.2 N 16 - 1010.0 - - - - - - - - -
29/07:00pm 24.1 N 18 20 1009.0 - - - - - - - - -
29/06:30pm 24.1 N 16 18 1008.9 - - - - - - - - -
29/06:29pm 24.1 N 16 - 1009.0 - - - - - - - - -
29/06:00pm 24.1 N 16 18 1008.1 - - - - - - - - -
29/05:30pm 24.0 N 17 19 1008.2 - - - - - - - - -
29/05:29pm 24.0 N 17 - 1008.4 - - - - - - - - -
29/05:00pm 24.0 N 18 20 1007.9 - - - - - - - - -
29/04:30pm 23.9 N 16 17 1008.2 - - - - - - - - -
29/04:29pm 23.9 N 16 - 1008.3 - - - - - - - - -
29/04:00pm 24.0 N 16 18 1008.3 - - - - - - - - -
29/03:30pm 24.0 N 15 17 1008.3 - - - - - - - - -
29/03:29pm 23.9 N 15 - 1008.5 - - - - - - - - -
29/03:00pm 23.9 NNW 15 18 1008.7 - - - - - - - - -
29/02:30pm 24.0 NNW 15 17 1008.8 - - - - - - - - -
29/02:29pm 23.9 NNW 15 - 1009.1 - - - - - - - - -
29/02:00pm 23.9 N 14 16 1008.9 - - - - - - - - -
29/01:30pm 23.8 NNW 14 16 1009.5 - - - - - - - - -
29/01:29pm 23.8 NNW 14 - 1009.6 - - - - - - - - -
29/01:00pm 23.9 N 15 18 1009.9 - - - - - - - - -
29/12:30pm 23.8 N 15 17 1010.1 - - - - - - - - -
29/12:29pm 23.8 N 15 - 1010.2 - - - - - - - - -
29/12:00pm 23.7 N 14 16 1010.5 - - - - - - - - -
29/11:30am 23.8 N 15 16 1011.1 - - - - - - - - -
29/11:29am 23.7 N 15 - 1011.2 - - - - - - - - -
29/11:00am 23.7 N 17 20 1011.0 - - - - - - - - -
29/10:30am 23.6 N 18 20 1011.0 - - - - - - - - -
29/10:29am 23.5 N 18 - 1011.1 - - - - - - - - -
29/10:00am 23.5 N 21 24 1010.9 - - - - - - - - -
29/09:30am 23.5 N 17 21 1011.4 - - - - - - - - -
29/09:29am 23.4 N 17 - 1011.6 - - - - - - - - -
29/09:00am 23.5 N 15 17 1011.7 - - - - - - - - -
29/08:30am 23.5 N 16 17 1011.7 - - - - - - - - -
29/08:29am 23.4 N 16 - 1011.8 - - - - - - - - -
29/08:00am 23.4 N 15 17 1012.1 - - - - - - - - -
29/07:30am 23.4 N 15 17 1012.1 - - - - - - - - -
29/07:29am 23.4 N 15 - 1012.2 - - - - - - - - -
29/07:00am 23.4 N 14 16 1012.2 - - - - - - - - -
29/06:30am 23.4 N 13 15 1012.0 - - - - - - - - -
29/06:29am 23.4 N 12 - 1012.0 - - - - - - - - -
29/06:00am 23.4 N 14 16 1011.2 - - - - - - - - -
29/05:30am 23.4 N 13 15 1011.2 - - - - - - - - -
29/05:29am 23.5 N 13 - 1011.4 - - - - - - - - -
29/05:00am 23.4 N 13 16 1010.8 - - - - - - - - -
29/04:30am 23.4 N 12 13 1011.0 - - - - - - - - -
29/04:29am 23.4 N 12 - 1011.1 - - - - - - - - -
29/04:00am 23.4 N 12 14 1010.9 - - - - - - - - -
29/03:30am 23.4 N 13 14 1011.0 - - - - - - - - -
29/03:29am 23.5 N 13 - 1011.1 - - - - - - - - -
29/03:00am 23.5 NNE 10 11 1011.2 - - - - - - - - -
29/02:30am 23.5 NNE 11 13 1011.3 - - - - - - - - -
29/02:29am 23.4 NNE 11 - 1011.4 - - - - - - - - -
29/02:00am 23.4 NNE 12 14 1011.1 - - - - - - - - -
29/01:30am 23.5 NNE 11 14 1011.4 - - - - - - - - -
29/01:29am 23.5 NNE 11 - 1011.5 - - - - - - - - -
29/01:00am 23.5 NNE 10 12 1012.0 - - - - - - - - -
29/12:30am 23.5 NNE 9 13 1011.8 - - - - - - - - -
29/12:29am 23.5 NNE 9 - 1012.0 - - - - - - - - -
29/12:00am 23.5 NNE 9 10 1012.7 - - - - - - - - -
 
Date/Time
EST
Temp
°C
Wind Pressure Rain since
9am
mm
Weather Cloud Vis
km
Sea
Height
m
Swell
Dir  Spd
kts
Gust
kts
hPa Trend Height
m
Period
s
Dir
28/11:30pm 23.6 NNE 11 13 1012.3 - - - - - - - - -
28/11:29pm 23.6 NNE 11 - 1012.4 - - - - - - - - -
28/11:00pm 23.7 NNE 10 13 1012.6 - - - - - - - - -
28/10:30pm 23.1 ENE 5 7 1013.1 - - - - - - - - -
28/10:29pm 23.2 ENE 5 - 1013.2 - - - - - - - - -
28/10:00pm 23.0 E 5 7 1013.4 - - - - - - - - -
28/09:30pm 23.0 E 6 7 1013.4 - - - - - - - - -
28/09:29pm 23.1 E 6 - 1013.5 - - - - - - - - -
28/09:00pm 23.1 ESE 4 8 1013.4 - - - - - - - - -
28/08:30pm 23.1 E 7 8 1013.2 - - - - - - - - -
28/08:29pm 23.1 E 7 - 1013.4 - - - - - - - - -
28/08:00pm 23.4 E 6 7 1013.3 - - - - - - - - -
28/07:30pm 23.3 E 7 8 1013.3 - - - - - - - - -
28/07:29pm 23.3 E 7 - 1013.3 - - - - - - - - -
28/07:00pm 23.3 E 5 7 1013.0 - - - - - - - - -
28/06:30pm 23.3 E 6 8 1012.8 - - - - - - - - -
28/06:29pm 23.3 E 6 - 1012.9 - - - - - - - - -
28/06:00pm 23.4 E 7 9 1012.5 - - - - - - - - -
28/05:30pm 23.8 E 7 8 1012.0 - - - - - - - - -
28/05:29pm 23.8 E 7 - 1012.0 - - - - - - - - -
28/05:00pm 24.1 E 8 10 1011.7 - - - - - - - - -
28/04:30pm 23.9 E 9 11 1011.5 - - - - - - - - -
28/04:29pm 24.0 E 9 - 1011.6 - - - - - - - - -
28/04:00pm 23.9 ENE 8 10 1011.5 - - - - - - - - -
28/03:30pm 24.1 E 7 9 1011.8 - - - - - - - - -
28/03:29pm 24.1 E 7 - 1011.9 - - - - - - - - -
28/03:00pm 24.0 E 9 11 1011.7 - - - - - - - - -
28/02:30pm 24.1 E 8 10 1012.1 - - - - - - - - -
28/02:29pm 24.0 E 8 - 1012.2 - - - - - - - - -
28/02:00pm 23.8 ENE 8 10 1012.3 - - - - - - - - -
28/01:30pm 23.9 E 8 11 1012.6 - - - - - - - - -
28/01:29pm 23.9 E 9 - 1012.7 - - - - - - - - -
28/01:00pm 24.2 E 8 10 1012.9 - - - - - - - - -
28/12:30pm 24.5 E 8 9 1013.4 - - - - - - - - -
28/12:29pm 24.4 E 8 - 1013.5 - - - - - - - - -
28/12:00pm 24.3 E 7 9 1013.7 - - - - - - - - -
28/11:30am 24.4 E 7 8 1014.2 - - - - - - - - -
28/11:29am 24.3 E 7 - 1014.3 - - - - - - - - -
28/11:00am 24.5 ESE 6 8 1014.6 - - - - - - - - -
28/10:30am 24.2 ESE 7 9 1015.0 - - - - - - - - -
28/10:29am 24.2 ESE 7 - 1015.1 - - - - - - - - -
28/10:00am 24.0 ESE 9 11 1015.2 - - - - - - - - -
28/09:30am 23.9 SE 10 12 1015.4 - - - - - - - - -
28/09:29am 23.9 SE 10 - 1015.5 - - - - - - - - -
28/09:00am 23.8 SE 11 13 1015.4 - - - - - - - - -
28/08:30am 23.7 SE 10 13 1015.3 - - - - - - - - -
28/08:29am 23.7 SE 10 - 1015.4 - - - - - - - - -
28/08:00am 23.6 SE 10 12 1015.0 - - - - - - - - -
28/07:30am 23.3 ESE 10 11 1014.7 - - - - - - - - -
28/07:29am 23.2 ESE 10 - 1014.7 - - - - - - - - -
28/07:00am 23.0 SE 9 11 1014.4 - - - - - - - - -
28/06:30am 22.8 SE 10 11 1014.1 - - - - - - - - -
28/06:29am 22.8 SE 3 - 1014.2 - - - - - - - - -
28/06:00am 22.4 CALM 0 2 1013.7 - - - - - - - - -
28/05:30am 22.3 SE 1 3 1013.4 - - - - - - - - -
28/05:29am 22.4 SE 1 - 1013.5 - - - - - - - - -
28/05:00am 22.3 CALM 0 3 1013.4 - - - - - - - - -
28/04:30am 22.2 CALM 0 3 1012.9 - - - - - - - - -
28/04:29am 22.2 CALM 0 - 1012.9 - - - - - - - - -
28/04:00am 22.1 CALM 0 2 1012.4 - - - - - - - - -
28/03:30am 22.0 CALM 0 2 1012.6 - - - - - - - - -
28/03:29am 22.0 CALM 0 - 1012.7 - - - - - - - - -
28/03:00am 22.3 CALM 0 3 1012.3 - - - - - - - - -
28/02:30am 22.6 CALM 0 2 1012.6 - - - - - - - - -
28/02:29am 22.6 CALM 0 - 1012.7 - - - - - - - - -
28/02:00am 22.6 CALM 0 1 1012.7 - - - - - - - - -
28/01:30am 22.6 CALM 0 2 1012.9 - - - - - - - - -
28/01:29am 22.6 CALM 0 - 1013.0 - - - - - - - - -
28/01:00am 22.6 CALM 0 2 1012.9 - - - - - - - - -
28/12:30am 22.7 CALM 0 2 1013.0 - - - - - - - - -
28/12:29am 22.7 CALM 0 - 1013.2 - - - - - - - - -
28/12:00am 22.5 CALM 0 1 1013.1 - - - - - - - - -
 
Date/Time
EST
Temp
°C
Wind Pressure Rain since
9am
mm
Weather Cloud Vis
km
Sea
Height
m
Swell
Dir  Spd
kts
Gust
kts
hPa Trend Height
m
Period
s
Dir
27/11:30pm 22.5 CALM 0 2 1013.7 - - - - - - - - -
27/11:29pm 22.5 CALM 0 - 1013.8 - - - - - - - - -

Other Formats:

Comma delimited format used in spreadsheet applications
http://www.bom.gov.au/fwo/IDQ60701/IDQ60701.94379.axf

JavaScript Object Notation format (JSON) in row-major order
http://www.bom.gov.au/fwo/IDQ60701/IDQ60701.94379.json